sensor_id;sensor_type;location;lat;lon;timestamp;P1;durP1;ratioP1;P2;durP2;ratioP2
7647;SDS011;3866;48.020;11.720;2022-08-19T00:01:24;7.60;;;6.90;;
7647;SDS011;3866;48.020;11.720;2022-08-19T00:03:52;7.43;;;6.50;;
7647;SDS011;3866;48.020;11.720;2022-08-19T00:06:19;7.23;;;5.87;;
7647;SDS011;3866;48.020;11.720;2022-08-19T00:08:47;6.67;;;6.07;;
7647;SDS011;3866;48.020;11.720;2022-08-19T00:11:16;6.83;;;6.13;;
7647;SDS011;3866;48.020;11.720;2022-08-19T00:13:44;5.83;;;5.20;;
7647;SDS011;3866;48.020;11.720;2022-08-19T00:16:11;5.57;;;4.87;;
7647;SDS011;3866;48.020;11.720;2022-08-19T00:18:38;5.33;;;4.90;;
7647;SDS011;3866;48.020;11.720;2022-08-19T00:21:05;5.70;;;5.20;;
7647;SDS011;3866;48.020;11.720;2022-08-19T00:23:32;5.53;;;4.97;;
7647;SDS011;3866;48.020;11.720;2022-08-19T00:26:02;5.30;;;4.80;;
7647;SDS011;3866;48.020;11.720;2022-08-19T00:28:29;5.13;;;4.73;;
7647;SDS011;3866;48.020;11.720;2022-08-19T00:30:57;5.10;;;4.70;;
7647;SDS011;3866;48.020;11.720;2022-08-19T00:33:23;4.63;;;4.23;;
7647;SDS011;3866;48.020;11.720;2022-08-19T00:35:50;4.60;;;4.20;;
7647;SDS011;3866;48.020;11.720;2022-08-19T00:38:17;4.40;;;4.00;;
7647;SDS011;3866;48.020;11.720;2022-08-19T00:40:47;4.13;;;3.83;;
7647;SDS011;3866;48.020;11.720;2022-08-19T00:43:19;4.37;;;3.83;;
7647;SDS011;3866;48.020;11.720;2022-08-19T00:45:48;4.07;;;3.77;;
7647;SDS011;3866;48.020;11.720;2022-08-19T00:48:15;4.63;;;3.97;;
7647;SDS011;3866;48.020;11.720;2022-08-19T00:50:42;4.57;;;4.17;;
7647;SDS011;3866;48.020;11.720;2022-08-19T00:53:11;4.53;;;4.10;;
7647;SDS011;3866;48.020;11.720;2022-08-19T00:55:40;4.53;;;3.63;;
7647;SDS011;3866;48.020;11.720;2022-08-19T00:58:09;3.90;;;3.60;;
7647;SDS011;3866;48.020;11.720;2022-08-19T01:00:41;3.40;;;3.20;;
7647;SDS011;3866;48.020;11.720;2022-08-19T01:03:08;3.90;;;3.50;;
7647;SDS011;3866;48.020;11.720;2022-08-19T01:05:37;4.47;;;4.03;;
7647;SDS011;3866;48.020;11.720;2022-08-19T01:08:07;3.47;;;3.17;;
7647;SDS011;3866;48.020;11.720;2022-08-19T01:10:36;3.87;;;3.57;;
7647;SDS011;3866;48.020;11.720;2022-08-19T01:13:06;3.97;;;3.67;;
7647;SDS011;3866;48.020;11.720;2022-08-19T01:15:35;3.90;;;3.60;;
7647;SDS011;3866;48.020;11.720;2022-08-19T01:18:09;4.83;;;4.07;;
7647;SDS011;3866;48.020;11.720;2022-08-19T01:20:39;3.77;;;3.33;;
7647;SDS011;3866;48.020;11.720;2022-08-19T01:23:09;3.60;;;3.30;;
7647;SDS011;3866;48.020;11.720;2022-08-19T01:25:39;3.30;;;3.00;;
7647;SDS011;3866;48.020;11.720;2022-08-19T01:28:14;3.10;;;2.90;;
7647;SDS011;3866;48.020;11.720;2022-08-19T01:30:43;3.43;;;3.13;;
7647;SDS011;3866;48.020;11.720;2022-08-19T01:33:11;3.17;;;2.97;;
7647;SDS011;3866;48.020;11.720;2022-08-19T01:35:38;3.83;;;3.23;;
7647;SDS011;3866;48.020;11.720;2022-08-19T01:38:06;3.60;;;3.30;;
7647;SDS011;3866;48.020;11.720;2022-08-19T01:40:38;4.20;;;3.80;;
7647;SDS011;3866;48.020;11.720;2022-08-19T01:43:06;4.50;;;3.03;;
7647;SDS011;3866;48.020;11.720;2022-08-19T01:45:34;4.07;;;3.70;;
7647;SDS011;3866;48.020;11.720;2022-08-19T01:48:01;3.80;;;3.50;;
7647;SDS011;3866;48.020;11.720;2022-08-19T01:50:29;3.77;;;3.47;;
7647;SDS011;3866;48.020;11.720;2022-08-19T01:52:57;4.70;;;4.30;;
7647;SDS011;3866;48.020;11.720;2022-08-19T01:55:26;4.30;;;3.90;;
7647;SDS011;3866;48.020;11.720;2022-08-19T01:57:54;3.80;;;3.50;;
7647;SDS011;3866;48.020;11.720;2022-08-19T02:00:24;4.50;;;4.10;;
7647;SDS011;3866;48.020;11.720;2022-08-19T02:02:55;4.07;;;3.77;;
7647;SDS011;3866;48.020;11.720;2022-08-19T02:05:23;3.93;;;3.53;;
7647;SDS011;3866;48.020;11.720;2022-08-19T02:07:50;4.33;;;3.93;;
7647;SDS011;3866;48.020;11.720;2022-08-19T02:10:18;4.27;;;3.87;;
7647;SDS011;3866;48.020;11.720;2022-08-19T02:12:48;4.90;;;4.20;;
7647;SDS011;3866;48.020;11.720;2022-08-19T02:15:15;4.43;;;4.03;;
7647;SDS011;3866;48.020;11.720;2022-08-19T02:17:43;5.07;;;4.57;;
7647;SDS011;3866;48.020;11.720;2022-08-19T02:20:11;5.50;;;4.00;;
7647;SDS011;3866;48.020;11.720;2022-08-19T02:22:39;4.43;;;4.03;;
7647;SDS011;3866;48.020;11.720;2022-08-19T02:25:07;4.10;;;3.80;;
7647;SDS011;3866;48.020;11.720;2022-08-19T02:27:35;3.60;;;3.30;;
7647;SDS011;3866;48.020;11.720;2022-08-19T02:30:04;4.37;;;3.97;;
7647;SDS011;3866;48.020;11.720;2022-08-19T02:32:33;3.90;;;3.60;;
7647;SDS011;3866;48.020;11.720;2022-08-19T02:35:00;5.93;;;3.73;;
7647;SDS011;3866;48.020;11.720;2022-08-19T02:37:27;4.53;;;4.13;;
7647;SDS011;3866;48.020;11.720;2022-08-19T02:40:11;4.80;;;4.20;;
7647;SDS011;3866;48.020;11.720;2022-08-19T02:42:38;4.53;;;3.63;;
7647;SDS011;3866;48.020;11.720;2022-08-19T02:45:07;4.10;;;3.80;;
7647;SDS011;3866;48.020;11.720;2022-08-19T02:47:35;4.13;;;3.73;;
7647;SDS011;3866;48.020;11.720;2022-08-19T02:50:02;4.20;;;3.90;;
7647;SDS011;3866;48.020;11.720;2022-08-19T02:52:30;4.07;;;3.63;;
7647;SDS011;3866;48.020;11.720;2022-08-19T02:54:58;4.43;;;4.03;;
7647;SDS011;3866;48.020;11.720;2022-08-19T02:57:25;4.43;;;4.03;;
7647;SDS011;3866;48.020;11.720;2022-08-19T02:59:53;4.13;;;3.77;;
7647;SDS011;3866;48.020;11.720;2022-08-19T03:02:21;4.80;;;4.40;;
7647;SDS011;3866;48.020;11.720;2022-08-19T03:04:48;5.03;;;4.53;;
7647;SDS011;3866;48.020;11.720;2022-08-19T03:07:16;4.40;;;4.00;;
7647;SDS011;3866;48.020;11.720;2022-08-19T03:09:44;4.73;;;4.20;;
7647;SDS011;3866;48.020;11.720;2022-08-19T03:12:11;4.67;;;4.27;;
7647;SDS011;3866;48.020;11.720;2022-08-19T03:14:38;4.63;;;4.23;;
7647;SDS011;3866;48.020;11.720;2022-08-19T03:17:05;4.70;;;4.30;;
7647;SDS011;3866;48.020;11.720;2022-08-19T03:19:34;4.77;;;4.37;;
7647;SDS011;3866;48.020;11.720;2022-08-19T03:22:01;4.77;;;4.27;;
7647;SDS011;3866;48.020;11.720;2022-08-19T03:24:29;5.70;;;4.90;;
7647;SDS011;3866;48.020;11.720;2022-08-19T03:26:56;5.87;;;5.37;;
7647;SDS011;3866;48.020;11.720;2022-08-19T03:29:24;4.50;;;4.20;;
7647;SDS011;3866;48.020;11.720;2022-08-19T03:31:52;5.03;;;4.53;;
7647;SDS011;3866;48.020;11.720;2022-08-19T03:34:20;4.67;;;4.27;;
7647;SDS011;3866;48.020;11.720;2022-08-19T03:36:52;4.67;;;4.27;;
7647;SDS011;3866;48.020;11.720;2022-08-19T03:39:20;5.63;;;5.10;;
7647;SDS011;3866;48.020;11.720;2022-08-19T03:41:48;4.77;;;4.13;;
7647;SDS011;3866;48.020;11.720;2022-08-19T03:44:16;5.17;;;4.67;;
7647;SDS011;3866;48.020;11.720;2022-08-19T03:46:46;5.80;;;4.30;;
7647;SDS011;3866;48.020;11.720;2022-08-19T03:49:15;6.63;;;4.97;;
7647;SDS011;3866;48.020;11.720;2022-08-19T03:51:42;4.37;;;3.97;;
7647;SDS011;3866;48.020;11.720;2022-08-19T03:54:11;4.30;;;3.90;;
7647;SDS011;3866;48.020;11.720;2022-08-19T03:56:40;4.60;;;4.20;;
7647;SDS011;3866;48.020;11.720;2022-08-19T03:59:19;4.47;;;4.07;;
7647;SDS011;3866;48.020;11.720;2022-08-19T04:01:50;4.10;;;3.73;;
7647;SDS011;3866;48.020;11.720;2022-08-19T04:04:18;4.53;;;4.13;;
7647;SDS011;3866;48.020;11.720;2022-08-19T04:06:45;4.90;;;4.27;;
7647;SDS011;3866;48.020;11.720;2022-08-19T04:09:13;3.87;;;3.47;;
7647;SDS011;3866;48.020;11.720;2022-08-19T04:11:43;4.23;;;3.83;;
7647;SDS011;3866;48.020;11.720;2022-08-19T04:14:13;4.60;;;4.20;;
7647;SDS011;3866;48.020;11.720;2022-08-19T04:16:41;4.03;;;3.70;;
7647;SDS011;3866;48.020;11.720;2022-08-19T04:19:10;5.30;;;3.87;;
7647;SDS011;3866;48.020;11.720;2022-08-19T04:21:37;3.60;;;3.30;;
7647;SDS011;3866;48.020;11.720;2022-08-19T04:24:05;3.90;;;3.50;;
7647;SDS011;3866;48.020;11.720;2022-08-19T04:26:35;4.47;;;4.07;;
7647;SDS011;3866;48.020;11.720;2022-08-19T04:29:05;3.90;;;3.53;;
7647;SDS011;3866;48.020;11.720;2022-08-19T04:31:34;4.47;;;4.03;;
7647;SDS011;3866;48.020;11.720;2022-08-19T04:34:02;3.40;;;3.10;;
7647;SDS011;3866;48.020;11.720;2022-08-19T04:36:31;3.17;;;2.97;;
7647;SDS011;3866;48.020;11.720;2022-08-19T04:39:00;3.80;;;3.20;;
7647;SDS011;3866;48.020;11.720;2022-08-19T04:41:29;3.70;;;3.40;;
7647;SDS011;3866;48.020;11.720;2022-08-19T04:44:14;3.90;;;3.57;;
7647;SDS011;3866;48.020;11.720;2022-08-19T04:46:43;3.93;;;3.53;;
7647;SDS011;3866;48.020;11.720;2022-08-19T04:49:10;4.50;;;3.60;;
7647;SDS011;3866;48.020;11.720;2022-08-19T04:51:39;3.83;;;3.43;;
7647;SDS011;3866;48.020;11.720;2022-08-19T04:54:07;4.17;;;3.20;;
7647;SDS011;3866;48.020;11.720;2022-08-19T04:56:34;4.33;;;3.73;;
7647;SDS011;3866;48.020;11.720;2022-08-19T04:59:01;3.87;;;3.47;;
7647;SDS011;3866;48.020;11.720;2022-08-19T05:01:31;4.30;;;3.20;;
7647;SDS011;3866;48.020;11.720;2022-08-19T05:04:01;3.77;;;3.47;;
7647;SDS011;3866;48.020;11.720;2022-08-19T05:06:29;4.00;;;3.50;;
7647;SDS011;3866;48.020;11.720;2022-08-19T05:08:58;4.00;;;3.60;;
7647;SDS011;3866;48.020;11.720;2022-08-19T05:11:26;3.70;;;3.30;;
7647;SDS011;3866;48.020;11.720;2022-08-19T05:13:56;3.17;;;2.87;;
7647;SDS011;3866;48.020;11.720;2022-08-19T05:16:23;3.47;;;3.17;;
7647;SDS011;3866;48.020;11.720;2022-08-19T05:18:53;3.30;;;3.00;;
7647;SDS011;3866;48.020;11.720;2022-08-19T05:21:39;3.17;;;2.90;;
7647;SDS011;3866;48.020;11.720;2022-08-19T05:24:23;3.20;;;2.90;;
7647;SDS011;3866;48.020;11.720;2022-08-19T05:26:51;4.80;;;3.77;;
7647;SDS011;3866;48.020;11.720;2022-08-19T05:29:22;3.60;;;3.30;;
7647;SDS011;3866;48.020;11.720;2022-08-19T05:31:50;6.10;;;3.70;;
7647;SDS011;3866;48.020;11.720;2022-08-19T05:34:20;3.50;;;3.20;;
7647;SDS011;3866;48.020;11.720;2022-08-19T05:36:50;3.50;;;3.20;;
7647;SDS011;3866;48.020;11.720;2022-08-19T05:39:22;4.27;;;3.10;;
7647;SDS011;3866;48.020;11.720;2022-08-19T05:41:52;3.50;;;3.20;;
7647;SDS011;3866;48.020;11.720;2022-08-19T05:44:22;3.67;;;3.30;;
7647;SDS011;3866;48.020;11.720;2022-08-19T05:46:50;4.93;;;3.63;;
7647;SDS011;3866;48.020;11.720;2022-08-19T05:49:20;4.37;;;3.57;;
7647;SDS011;3866;48.020;11.720;2022-08-19T05:51:48;3.90;;;3.60;;
7647;SDS011;3866;48.020;11.720;2022-08-19T05:54:16;4.80;;;3.87;;
7647;SDS011;3866;48.020;11.720;2022-08-19T05:56:44;5.00;;;4.07;;
7647;SDS011;3866;48.020;11.720;2022-08-19T05:59:13;4.60;;;3.43;;
7647;SDS011;3866;48.020;11.720;2022-08-19T06:01:42;4.27;;;3.97;;
7647;SDS011;3866;48.020;11.720;2022-08-19T06:04:11;4.23;;;3.93;;
7647;SDS011;3866;48.020;11.720;2022-08-19T06:06:40;5.70;;;4.47;;
7647;SDS011;3866;48.020;11.720;2022-08-19T06:09:07;4.60;;;4.07;;
7647;SDS011;3866;48.020;11.720;2022-08-19T06:11:36;5.27;;;4.77;;
7647;SDS011;3866;48.020;11.720;2022-08-19T06:14:06;4.20;;;3.83;;
7647;SDS011;3866;48.020;11.720;2022-08-19T06:16:35;4.90;;;4.40;;
7647;SDS011;3866;48.020;11.720;2022-08-19T06:19:04;8.93;;;4.57;;
7647;SDS011;3866;48.020;11.720;2022-08-19T06:21:34;6.20;;;4.90;;
7647;SDS011;3866;48.020;11.720;2022-08-19T06:24:05;6.13;;;5.20;;
7647;SDS011;3866;48.020;11.720;2022-08-19T06:26:34;5.53;;;5.03;;
7647;SDS011;3866;48.020;11.720;2022-08-19T06:29:03;5.97;;;5.47;;
7647;SDS011;3866;48.020;11.720;2022-08-19T06:31:31;5.97;;;5.47;;
7647;SDS011;3866;48.020;11.720;2022-08-19T06:34:00;6.23;;;5.73;;
7647;SDS011;3866;48.020;11.720;2022-08-19T06:36:29;6.33;;;5.73;;
7647;SDS011;3866;48.020;11.720;2022-08-19T06:38:59;6.70;;;6.00;;
7647;SDS011;3866;48.020;11.720;2022-08-19T06:41:28;8.47;;;6.50;;
7647;SDS011;3866;48.020;11.720;2022-08-19T06:43:56;7.13;;;6.43;;
7647;SDS011;3866;48.020;11.720;2022-08-19T06:46:23;6.33;;;5.67;;
7647;SDS011;3866;48.020;11.720;2022-08-19T06:48:51;7.40;;;6.70;;
7647;SDS011;3866;48.020;11.720;2022-08-19T06:51:19;8.17;;;6.50;;
7647;SDS011;3866;48.020;11.720;2022-08-19T06:53:49;6.20;;;5.60;;
7647;SDS011;3866;48.020;11.720;2022-08-19T06:56:18;6.90;;;5.50;;
7647;SDS011;3866;48.020;11.720;2022-08-19T06:58:47;5.80;;;5.10;;
7647;SDS011;3866;48.020;11.720;2022-08-19T07:01:16;6.73;;;6.13;;
7647;SDS011;3866;48.020;11.720;2022-08-19T07:03:43;7.90;;;6.33;;
7647;SDS011;3866;48.020;11.720;2022-08-19T07:06:12;6.53;;;5.57;;
7647;SDS011;3866;48.020;11.720;2022-08-19T07:08:42;6.77;;;6.07;;
7647;SDS011;3866;48.020;11.720;2022-08-19T07:11:12;6.20;;;5.67;;
7647;SDS011;3866;48.020;11.720;2022-08-19T07:13:40;6.43;;;5.63;;
7647;SDS011;3866;48.020;11.720;2022-08-19T07:16:10;6.33;;;5.73;;
7647;SDS011;3866;48.020;11.720;2022-08-19T07:18:39;6.63;;;5.80;;
7647;SDS011;3866;48.020;11.720;2022-08-19T07:21:08;8.27;;;6.70;;
7647;SDS011;3866;48.020;11.720;2022-08-19T07:23:36;9.90;;;7.33;;
7647;SDS011;3866;48.020;11.720;2022-08-19T07:26:04;9.30;;;6.50;;
7647;SDS011;3866;48.020;11.720;2022-08-19T07:28:34;10.10;;;7.53;;
7647;SDS011;3866;48.020;11.720;2022-08-19T07:31:04;10.47;;;8.27;;
7647;SDS011;3866;48.020;11.720;2022-08-19T07:33:33;11.93;;;8.80;;
7647;SDS011;3866;48.020;11.720;2022-08-19T07:36:02;10.40;;;9.07;;
7647;SDS011;3866;48.020;11.720;2022-08-19T07:38:29;12.57;;;10.53;;
7647;SDS011;3866;48.020;11.720;2022-08-19T07:40:56;11.97;;;9.90;;
7647;SDS011;3866;48.020;11.720;2022-08-19T07:43:23;13.30;;;11.57;;
7647;SDS011;3866;48.020;11.720;2022-08-19T07:45:51;14.53;;;11.17;;
7647;SDS011;3866;48.020;11.720;2022-08-19T07:48:21;13.30;;;11.67;;
7647;SDS011;3866;48.020;11.720;2022-08-19T07:50:51;12.70;;;11.23;;
7647;SDS011;3866;48.020;11.720;2022-08-19T07:53:19;14.53;;;11.47;;
7647;SDS011;3866;48.020;11.720;2022-08-19T07:55:46;13.23;;;11.70;;
7647;SDS011;3866;48.020;11.720;2022-08-19T07:58:14;16.73;;;13.30;;
7647;SDS011;3866;48.020;11.720;2022-08-19T08:00:43;16.77;;;13.30;;
7647;SDS011;3866;48.020;11.720;2022-08-19T08:03:12;16.83;;;13.47;;
7647;SDS011;3866;48.020;11.720;2022-08-19T08:05:39;14.30;;;11.90;;
7647;SDS011;3866;48.020;11.720;2022-08-19T08:08:26;15.37;;;12.97;;
7647;SDS011;3866;48.020;11.720;2022-08-19T08:11:11;20.07;;;14.97;;
7647;SDS011;3866;48.020;11.720;2022-08-19T08:13:38;16.17;;;12.97;;
7647;SDS011;3866;48.020;11.720;2022-08-19T08:16:06;15.77;;;13.33;;
7647;SDS011;3866;48.020;11.720;2022-08-19T08:18:33;16.80;;;15.10;;
7647;SDS011;3866;48.020;11.720;2022-08-19T08:21:06;19.40;;;15.73;;
7647;SDS011;3866;48.020;11.720;2022-08-19T08:23:35;22.43;;;20.20;;
7647;SDS011;3866;48.020;11.720;2022-08-19T08:26:02;18.10;;;15.33;;
7647;SDS011;3866;48.020;11.720;2022-08-19T08:28:29;16.93;;;13.47;;
7647;SDS011;3866;48.020;11.720;2022-08-19T08:30:57;17.10;;;13.70;;
7647;SDS011;3866;48.020;11.720;2022-08-19T08:33:25;15.83;;;12.13;;
7647;SDS011;3866;48.020;11.720;2022-08-19T08:35:55;13.40;;;11.77;;
7647;SDS011;3866;48.020;11.720;2022-08-19T08:38:22;13.17;;;11.47;;
7647;SDS011;3866;48.020;11.720;2022-08-19T08:40:52;13.53;;;11.57;;
7647;SDS011;3866;48.020;11.720;2022-08-19T08:43:32;12.40;;;11.10;;
7647;SDS011;3866;48.020;11.720;2022-08-19T08:46:03;12.93;;;11.53;;
7647;SDS011;3866;48.020;11.720;2022-08-19T08:48:34;16.03;;;11.63;;
7647;SDS011;3866;48.020;11.720;2022-08-19T08:51:05;13.53;;;11.33;;
7647;SDS011;3866;48.020;11.720;2022-08-19T08:53:36;13.23;;;11.87;;
7647;SDS011;3866;48.020;11.720;2022-08-19T08:56:06;13.30;;;11.07;;
7647;SDS011;3866;48.020;11.720;2022-08-19T08:58:41;15.33;;;12.00;;
7647;SDS011;3866;48.020;11.720;2022-08-19T09:01:15;11.37;;;9.70;;
7647;SDS011;3866;48.020;11.720;2022-08-19T09:03:42;12.30;;;11.00;;
7647;SDS011;3866;48.020;11.720;2022-08-19T09:06:12;11.63;;;10.43;;
7647;SDS011;3866;48.020;11.720;2022-08-19T09:08:47;10.20;;;9.10;;
7647;SDS011;3866;48.020;11.720;2022-08-19T09:11:22;14.07;;;10.57;;
7647;SDS011;3866;48.020;11.720;2022-08-19T09:14:05;11.73;;;9.90;;
7647;SDS011;3866;48.020;11.720;2022-08-19T09:16:40;10.33;;;9.10;;
7647;SDS011;3866;48.020;11.720;2022-08-19T09:19:07;11.87;;;9.73;;
7647;SDS011;3866;48.020;11.720;2022-08-19T09:21:35;10.83;;;9.73;;
7647;SDS011;3866;48.020;11.720;2022-08-19T09:24:03;12.37;;;10.47;;
7647;SDS011;3866;48.020;11.720;2022-08-19T09:26:33;12.90;;;11.13;;
7647;SDS011;3866;48.020;11.720;2022-08-19T09:29:00;13.13;;;11.73;;
7647;SDS011;3866;48.020;11.720;2022-08-19T09:31:30;12.97;;;11.13;;
7647;SDS011;3866;48.020;11.720;2022-08-19T09:33:57;13.03;;;11.60;;
7647;SDS011;3866;48.020;11.720;2022-08-19T09:36:26;15.57;;;12.47;;
7647;SDS011;3866;48.020;11.720;2022-08-19T09:38:57;14.10;;;12.00;;
7647;SDS011;3866;48.020;11.720;2022-08-19T09:41:26;13.10;;;11.70;;
7647;SDS011;3866;48.020;11.720;2022-08-19T09:43:55;13.43;;;11.77;;
7647;SDS011;3866;48.020;11.720;2022-08-19T09:46:24;12.73;;;10.83;;
7647;SDS011;3866;48.020;11.720;2022-08-19T09:48:52;11.93;;;10.63;;
7647;SDS011;3866;48.020;11.720;2022-08-19T09:51:20;11.07;;;9.93;;
7647;SDS011;3866;48.020;11.720;2022-08-19T09:53:49;11.80;;;10.60;;
7647;SDS011;3866;48.020;11.720;2022-08-19T09:56:19;12.43;;;10.30;;
7647;SDS011;3866;48.020;11.720;2022-08-19T09:58:47;11.13;;;9.53;;
7647;SDS011;3866;48.020;11.720;2022-08-19T10:01:17;11.90;;;10.27;;
7647;SDS011;3866;48.020;11.720;2022-08-19T10:03:47;9.63;;;8.43;;
7647;SDS011;3866;48.020;11.720;2022-08-19T10:06:15;10.57;;;9.30;;
7647;SDS011;3866;48.020;11.720;2022-08-19T10:08:42;12.57;;;10.53;;
7647;SDS011;3866;48.020;11.720;2022-08-19T10:11:09;10.30;;;9.20;;
7647;SDS011;3866;48.020;11.720;2022-08-19T10:13:37;10.47;;;8.63;;
7647;SDS011;3866;48.020;11.720;2022-08-19T10:16:05;11.23;;;9.83;;
7647;SDS011;3866;48.020;11.720;2022-08-19T10:18:35;14.03;;;11.33;;
7647;SDS011;3866;48.020;11.720;2022-08-19T10:21:04;13.33;;;10.30;;
7647;SDS011;3866;48.020;11.720;2022-08-19T10:23:34;12.70;;;10.70;;
7647;SDS011;3866;48.020;11.720;2022-08-19T10:26:02;13.90;;;11.53;;
7647;SDS011;3866;48.020;11.720;2022-08-19T10:28:31;13.00;;;10.77;;
7647;SDS011;3866;48.020;11.720;2022-08-19T10:31:01;12.30;;;10.17;;
7647;SDS011;3866;48.020;11.720;2022-08-19T10:33:31;10.63;;;9.53;;
7647;SDS011;3866;48.020;11.720;2022-08-19T10:36:00;10.50;;;9.37;;
7647;SDS011;3866;48.020;11.720;2022-08-19T10:38:29;11.47;;;10.27;;
7647;SDS011;3866;48.020;11.720;2022-08-19T10:40:56;11.73;;;10.53;;
7647;SDS011;3866;48.020;11.720;2022-08-19T10:43:23;12.37;;;10.80;;
7647;SDS011;3866;48.020;11.720;2022-08-19T10:45:54;12.70;;;10.20;;
7647;SDS011;3866;48.020;11.720;2022-08-19T10:48:24;11.10;;;9.90;;
7647;SDS011;3866;48.020;11.720;2022-08-19T10:50:51;13.10;;;11.70;;
7647;SDS011;3866;48.020;11.720;2022-08-19T10:53:36;15.53;;;11.40;;
7647;SDS011;3866;48.020;11.720;2022-08-19T10:56:03;11.30;;;9.93;;
7647;SDS011;3866;48.020;11.720;2022-08-19T10:58:48;11.10;;;9.57;;
7647;SDS011;3866;48.020;11.720;2022-08-19T11:01:15;12.13;;;9.83;;
7647;SDS011;3866;48.020;11.720;2022-08-19T11:03:41;12.37;;;10.17;;
7647;SDS011;3866;48.020;11.720;2022-08-19T11:06:10;12.47;;;9.60;;
7647;SDS011;3866;48.020;11.720;2022-08-19T11:08:39;10.07;;;8.43;;
7647;SDS011;3866;48.020;11.720;2022-08-19T11:11:07;10.73;;;8.33;;
7647;SDS011;3866;48.020;11.720;2022-08-19T11:13:35;9.47;;;8.47;;
7647;SDS011;3866;48.020;11.720;2022-08-19T11:16:05;8.87;;;7.97;;
7647;SDS011;3866;48.020;11.720;2022-08-19T11:18:35;7.50;;;6.70;;
7647;SDS011;3866;48.020;11.720;2022-08-19T11:21:07;7.70;;;6.90;;
7647;SDS011;3866;48.020;11.720;2022-08-19T11:23:36;8.27;;;7.47;;
7647;SDS011;3866;48.020;11.720;2022-08-19T11:26:05;7.13;;;6.53;;
7647;SDS011;3866;48.020;11.720;2022-08-19T11:28:31;8.13;;;7.43;;
7647;SDS011;3866;48.020;11.720;2022-08-19T11:30:58;8.00;;;7.20;;
7647;SDS011;3866;48.020;11.720;2022-08-19T11:33:26;8.00;;;7.20;;
7647;SDS011;3866;48.020;11.720;2022-08-19T11:35:53;6.30;;;5.70;;
7647;SDS011;3866;48.020;11.720;2022-08-19T11:38:20;6.93;;;5.77;;
7647;SDS011;3866;48.020;11.720;2022-08-19T11:40:53;7.83;;;7.13;;
7647;SDS011;3866;48.020;11.720;2022-08-19T11:43:25;6.87;;;6.20;;
7647;SDS011;3866;48.020;11.720;2022-08-19T11:45:53;7.07;;;6.13;;
7647;SDS011;3866;48.020;11.720;2022-08-19T11:48:21;6.60;;;5.93;;
7647;SDS011;3866;48.020;11.720;2022-08-19T11:50:48;5.67;;;5.17;;
7647;SDS011;3866;48.020;11.720;2022-08-19T11:53:15;6.10;;;5.50;;
7647;SDS011;3866;48.020;11.720;2022-08-19T11:55:44;5.03;;;4.53;;
7647;SDS011;3866;48.020;11.720;2022-08-19T11:58:11;4.00;;;3.70;;
7647;SDS011;3866;48.020;11.720;2022-08-19T12:00:40;2.77;;;2.57;;
7647;SDS011;3866;48.020;11.720;2022-08-19T12:03:10;2.80;;;2.60;;
7647;SDS011;3866;48.020;11.720;2022-08-19T12:05:37;4.13;;;3.73;;
7647;SDS011;3866;48.020;11.720;2022-08-19T12:08:05;3.53;;;3.23;;
7647;SDS011;3866;48.020;11.720;2022-08-19T12:10:32;3.23;;;2.93;;
7647;SDS011;3866;48.020;11.720;2022-08-19T12:13:00;3.23;;;2.93;;
7647;SDS011;3866;48.020;11.720;2022-08-19T12:15:27;2.77;;;2.57;;
7647;SDS011;3866;48.020;11.720;2022-08-19T12:17:56;2.83;;;2.63;;
7647;SDS011;3866;48.020;11.720;2022-08-19T12:20:23;3.30;;;3.00;;
7647;SDS011;3866;48.020;11.720;2022-08-19T12:22:51;3.60;;;3.03;;
7647;SDS011;3866;48.020;11.720;2022-08-19T12:25:18;2.97;;;2.60;;
7647;SDS011;3866;48.020;11.720;2022-08-19T12:27:45;4.37;;;3.30;;
7647;SDS011;3866;48.020;11.720;2022-08-19T12:30:13;2.97;;;2.77;;
7647;SDS011;3866;48.020;11.720;2022-08-19T12:32:40;2.73;;;2.53;;
7647;SDS011;3866;48.020;11.720;2022-08-19T12:35:09;3.03;;;2.83;;
7647;SDS011;3866;48.020;11.720;2022-08-19T12:37:36;2.90;;;2.63;;
7647;SDS011;3866;48.020;11.720;2022-08-19T12:40:04;5.60;;;5.03;;
7647;SDS011;3866;48.020;11.720;2022-08-19T12:42:31;6.93;;;6.23;;
7647;SDS011;3866;48.020;11.720;2022-08-19T12:44:59;8.23;;;7.40;;
7647;SDS011;3866;48.020;11.720;2022-08-19T12:47:26;7.87;;;7.07;;
7647;SDS011;3866;48.020;11.720;2022-08-19T12:49:53;7.27;;;6.57;;
7647;SDS011;3866;48.020;11.720;2022-08-19T12:52:23;6.77;;;6.07;;
7647;SDS011;3866;48.020;11.720;2022-08-19T12:54:52;5.97;;;5.37;;
7647;SDS011;3866;48.020;11.720;2022-08-19T12:57:22;5.67;;;5.13;;
7647;SDS011;3866;48.020;11.720;2022-08-19T12:59:51;4.53;;;4.13;;
7647;SDS011;3866;48.020;11.720;2022-08-19T13:02:19;3.70;;;3.40;;
7647;SDS011;3866;48.020;11.720;2022-08-19T13:04:47;2.93;;;2.53;;
7647;SDS011;3866;48.020;11.720;2022-08-19T13:07:14;2.87;;;2.20;;
7647;SDS011;3866;48.020;11.720;2022-08-19T13:09:42;2.23;;;2.03;;
7647;SDS011;3866;48.020;11.720;2022-08-19T13:12:09;2.00;;;1.90;;
7647;SDS011;3866;48.020;11.720;2022-08-19T13:14:38;3.60;;;2.10;;
7647;SDS011;3866;48.020;11.720;2022-08-19T13:17:05;2.43;;;2.20;;
7647;SDS011;3866;48.020;11.720;2022-08-19T13:19:32;2.20;;;1.80;;
7647;SDS011;3866;48.020;11.720;2022-08-19T13:21:59;2.13;;;1.90;;
7647;SDS011;3866;48.020;11.720;2022-08-19T13:24:26;2.80;;;1.53;;
7647;SDS011;3866;48.020;11.720;2022-08-19T13:26:54;1.00;;;0.97;;
7647;SDS011;3866;48.020;11.720;2022-08-19T13:29:21;1.00;;;1.00;;
7647;SDS011;3866;48.020;11.720;2022-08-19T13:32:05;2.17;;;1.20;;
7647;SDS011;3866;48.020;11.720;2022-08-19T13:34:49;0.83;;;0.83;;
7647;SDS011;3866;48.020;11.720;2022-08-19T13:37:16;0.90;;;0.90;;
7647;SDS011;3866;48.020;11.720;2022-08-19T13:40:04;0.80;;;0.80;;
7647;SDS011;3866;48.020;11.720;2022-08-19T13:42:33;0.60;;;0.60;;
7647;SDS011;3866;48.020;11.720;2022-08-19T13:45:00;1.03;;;0.40;;
7647;SDS011;3866;48.020;11.720;2022-08-19T13:47:27;0.90;;;0.60;;
7647;SDS011;3866;48.020;11.720;2022-08-19T13:49:54;0.60;;;0.50;;
7647;SDS011;3866;48.020;11.720;2022-08-19T13:52:21;0.50;;;0.50;;
7647;SDS011;3866;48.020;11.720;2022-08-19T13:54:48;0.50;;;0.50;;
7647;SDS011;3866;48.020;11.720;2022-08-19T13:57:15;1.00;;;0.70;;
7647;SDS011;3866;48.020;11.720;2022-08-19T13:59:43;0.53;;;0.53;;
7647;SDS011;3866;48.020;11.720;2022-08-19T14:02:10;0.60;;;0.60;;
7647;SDS011;3866;48.020;11.720;2022-08-19T14:04:37;1.17;;;0.70;;
7647;SDS011;3866;48.020;11.720;2022-08-19T14:07:04;0.60;;;0.60;;
7647;SDS011;3866;48.020;11.720;2022-08-19T14:09:31;0.63;;;0.63;;
7647;SDS011;3866;48.020;11.720;2022-08-19T14:11:58;0.63;;;0.50;;
7647;SDS011;3866;48.020;11.720;2022-08-19T14:14:25;0.80;;;0.80;;
7647;SDS011;3866;48.020;11.720;2022-08-19T14:16:53;0.70;;;0.70;;
7647;SDS011;3866;48.020;11.720;2022-08-19T14:19:20;0.90;;;0.90;;
7647;SDS011;3866;48.020;11.720;2022-08-19T14:21:47;0.73;;;0.73;;
7647;SDS011;3866;48.020;11.720;2022-08-19T14:24:14;0.80;;;0.80;;
7647;SDS011;3866;48.020;11.720;2022-08-19T14:26:41;1.17;;;0.80;;
7647;SDS011;3866;48.020;11.720;2022-08-19T14:29:08;1.10;;;0.80;;
7647;SDS011;3866;48.020;11.720;2022-08-19T14:31:35;0.70;;;0.70;;
7647;SDS011;3866;48.020;11.720;2022-08-19T14:34:03;0.90;;;0.90;;
7647;SDS011;3866;48.020;11.720;2022-08-19T14:36:30;1.00;;;0.90;;
7647;SDS011;3866;48.020;11.720;2022-08-19T14:38:59;1.27;;;1.20;;
7647;SDS011;3866;48.020;11.720;2022-08-19T14:41:26;1.50;;;1.10;;
7647;SDS011;3866;48.020;11.720;2022-08-19T14:43:55;1.20;;;1.10;;
7647;SDS011;3866;48.020;11.720;2022-08-19T14:46:23;1.30;;;1.20;;
7647;SDS011;3866;48.020;11.720;2022-08-19T14:48:51;1.23;;;1.23;;
7647;SDS011;3866;48.020;11.720;2022-08-19T14:51:23;1.37;;;1.27;;
7647;SDS011;3866;48.020;11.720;2022-08-19T14:53:51;1.57;;;1.47;;
7647;SDS011;3866;48.020;11.720;2022-08-19T14:56:21;1.50;;;1.37;;
7647;SDS011;3866;48.020;11.720;2022-08-19T14:58:48;1.60;;;1.50;;
7647;SDS011;3866;48.020;11.720;2022-08-19T15:01:16;2.47;;;2.37;;
7647;SDS011;3866;48.020;11.720;2022-08-19T15:03:45;1.70;;;1.60;;
7647;SDS011;3866;48.020;11.720;2022-08-19T15:06:13;1.47;;;1.37;;